Time;durP1;ratioP1;P1;durP2;ratioP2;P2;SDS_P1;SDS_P2;PMS_P1;PMS_P2;Temp;Humidity;BMP_temperature;BMP_pressure;BME280_temperature;BME280_humidity;BME280_pressure;Samples;Min_cycle;Max_cycle;Signal;HPM_P1;HPM_P2
2023/10/11 00:00:57;;;;;;;;;;;20.10;92.30;;;;;;5054388;28;19914;-75
2023/10/11 00:05:57;;;;;;;;;;;20.00;92.20;;;;;;5054292;28;20348;-75
2023/10/11 00:08:26;;;;;;;;;;;19.90;92.20;;;;;;5054255;28;19905;-74
2023/10/11 00:10:55;;;;;;;;;;;19.90;92.30;;;;;;5053978;28;19904;-75
2023/10/11 00:13:22;;;;;;;;;;;19.90;92.30;;;;;;5053922;28;20403;-75
2023/10/11 00:15:49;;;;;;;;;;;19.90;92.40;;;;;;5054025;28;20307;-75
2023/10/11 00:18:17;;;;;;;;;;;19.90;92.40;;;;;;5054254;28;19908;-75
2023/10/11 00:23:08;;;;;;;;;;;19.90;92.50;;;;;;5053617;28;19913;-76
2023/10/11 00:25:34;;;;;;;;;;;19.90;92.50;;;;;;5053928;28;19905;-74
2023/10/11 00:27:59;;;;;;;;;;;19.90;92.50;;;;;;5054171;28;19953;-75
2023/10/11 00:30:25;;;;;;;;;;;19.90;92.50;;;;;;5052750;28;19915;-75
2023/10/11 00:32:55;;;;;;;;;;;19.90;92.50;;;;;;5053946;28;19905;-75
2023/10/11 00:35:24;;;;;;;;;;;20.00;92.50;;;;;;5054002;28;19912;-76
2023/10/11 00:37:53;;;;;;;;;;;19.90;92.40;;;;;;5052559;28;19904;-75
2023/10/11 00:40:27;;;;;;;;;;;20.00;92.40;;;;;;5053800;28;19912;-75
2023/10/11 00:42:53;;;;;;;;;;;20.00;92.30;;;;;;5053569;28;20011;-75
2023/10/11 00:45:22;;;;;;;;;;;20.00;92.20;;;;;;5053720;28;20046;-75
2023/10/11 00:47:52;;;;;;;;;;;20.00;92.20;;;;;;5053054;28;19913;-75
2023/10/11 00:50:21;;;;;;;;;;;20.00;92.10;;;;;;5053645;28;19917;-75
2023/10/11 00:52:50;;;;;;;;;;;19.90;92.10;;;;;;5052766;28;19959;-75
2023/10/11 00:55:21;;;;;;;;;;;19.90;92.10;;;;;;5054169;28;20295;-75
2023/10/11 00:57:48;;;;;;;;;;;19.90;92.10;;;;;;5053108;28;20375;-75
2023/10/11 01:00:21;;;;;;;;;;;19.90;92.10;;;;;;5051344;28;19905;-75
2023/10/11 01:02:52;;;;;;;;;;;19.90;92.10;;;;;;5051254;28;20383;-75
2023/10/11 01:05:20;;;;;;;;;;;19.90;92.00;;;;;;5052615;28;20345;-75
2023/10/11 01:07:49;;;;;;;;;;;19.80;92.00;;;;;;5053823;28;19912;-75
2023/10/11 01:13:32;;;;;;;;;;;19.70;92.10;;;;;;4971304;28;19913;-75
2023/10/11 01:16:07;;;;;;;;;;;19.70;92.20;;;;;;4972888;28;19906;-75
2023/10/11 01:18:38;;;;;;;;;;;19.70;92.20;;;;;;5035324;28;20284;-75
2023/10/11 01:21:05;;;;;;;;;;;19.70;92.30;;;;;;5052921;28;19966;-75
2023/10/11 01:23:34;;;;;;;;;;;19.60;92.20;;;;;;5051978;28;19905;-75
2023/10/11 01:26:07;;;;;;;;;;;19.60;92.30;;;;;;5052974;28;19905;-76
2023/10/11 01:28:34;;;;;;;;;;;19.60;92.30;;;;;;5051590;28;20337;-76
2023/10/11 01:31:00;;;;;;;;;;;19.60;92.30;;;;;;5051896;28;19967;-75
2023/10/11 01:33:27;;;;;;;;;;;19.60;92.40;;;;;;5052387;28;19940;-76
2023/10/11 01:35:52;;;;;;;;;;;19.50;92.30;;;;;;5053010;28;19995;-75
2023/10/11 01:38:18;;;;;;;;;;;19.50;92.30;;;;;;5053069;28;19987;-76
2023/10/11 01:40:43;;;;;;;;;;;19.50;92.30;;;;;;5051836;28;19912;-74
2023/10/11 01:43:09;;;;;;;;;;;19.50;92.30;;;;;;5052770;28;20445;-74
2023/10/11 01:45:39;;;;;;;;;;;19.60;92.30;;;;;;5053063;28;19932;-75
2023/10/11 01:48:07;;;;;;;;;;;19.50;92.30;;;;;;5051725;28;19923;-75
2023/10/11 01:50:37;;;;;;;;;;;19.50;92.30;;;;;;5056865;28;20368;-74
2023/10/11 01:53:03;;;;;;;;;;;19.50;92.30;;;;;;5056609;28;20368;-75
2023/10/11 01:55:29;;;;;;;;;;;19.50;92.10;;;;;;5056911;28;19912;-75
2023/10/11 01:57:54;;;;;;;;;;;19.50;92.00;;;;;;5055737;28;19905;-74
2023/10/11 02:00:24;;;;;;;;;;;19.40;91.90;;;;;;5056799;28;19958;-75
2023/10/11 02:02:55;;;;;;;;;;;19.40;91.90;;;;;;5056611;28;19913;-75
2023/10/11 02:05:22;;;;;;;;;;;19.40;91.80;;;;;;5056461;28;19905;-75
2023/10/11 02:07:47;;;;;;;;;;;19.40;91.90;;;;;;5056995;28;20268;-78
2023/10/11 02:10:13;;;;;;;;;;;19.30;92.00;;;;;;5056688;28;19904;-78
2023/10/11 02:12:40;;;;;;;;;;;19.40;92.00;;;;;;5056646;28;19905;-78
2023/10/11 02:15:09;;;;;;;;;;;19.40;92.10;;;;;;5056439;28;19908;-78
2023/10/11 02:17:38;;;;;;;;;;;19.40;92.20;;;;;;5056213;28;19911;-77
2023/10/11 02:20:11;;;;;;;;;;;19.40;92.20;;;;;;5056296;28;19912;-79
2023/10/11 02:22:37;;;;;;;;;;;19.40;92.10;;;;;;5056226;28;19919;-78
2023/10/11 02:25:03;;;;;;;;;;;19.40;92.00;;;;;;5056234;28;20261;-78
2023/10/11 02:27:32;;;;;;;;;;;19.40;91.90;;;;;;5056567;28;19948;-75
2023/10/11 02:29:58;;;;;;;;;;;19.40;91.80;;;;;;5056364;28;19904;-75
2023/10/11 02:32:32;;;;;;;;;;;19.30;91.80;;;;;;5056905;28;19905;-75
2023/10/11 02:34:58;;;;;;;;;;;19.30;91.80;;;;;;5056697;28;19905;-74
2023/10/11 02:37:29;;;;;;;;;;;19.20;91.80;;;;;;5056714;28;19912;-75
2023/10/11 02:39:55;;;;;;;;;;;19.20;91.90;;;;;;5055100;28;20054;-74
2023/10/11 02:42:21;;;;;;;;;;;19.20;92.00;;;;;;5055734;28;20324;-75
2023/10/11 02:44:48;;;;;;;;;;;19.10;92.00;;;;;;5056073;28;19930;-75
2023/10/11 02:47:22;;;;;;;;;;;19.10;92.10;;;;;;5055929;28;20292;-74
2023/10/11 02:49:51;;;;;;;;;;;19.00;92.10;;;;;;5056111;28;20269;-75
2023/10/11 02:52:18;;;;;;;;;;;19.00;92.20;;;;;;5056126;28;19912;-75
2023/10/11 02:54:46;;;;;;;;;;;18.90;92.20;;;;;;5054795;28;20323;-74
2023/10/11 02:57:19;;;;;;;;;;;18.90;92.20;;;;;;5056003;28;19905;-74
2023/10/11 02:59:50;;;;;;;;;;;18.90;92.20;;;;;;5053791;28;19987;-74
2023/10/11 03:02:16;;;;;;;;;;;18.90;92.20;;;;;;5054165;28;19916;-76
2023/10/11 03:04:45;;;;;;;;;;;18.90;92.30;;;;;;5055106;28;19905;-75
2023/10/11 03:07:21;;;;;;;;;;;18.90;92.30;;;;;;5055706;28;19905;-75
2023/10/11 03:09:47;;;;;;;;;;;18.80;92.20;;;;;;5054653;28;20253;-75
2023/10/11 03:12:18;;;;;;;;;;;18.80;92.30;;;;;;5055463;28;20307;-75
2023/10/11 03:14:54;;;;;;;;;;;18.80;92.30;;;;;;5055520;28;19909;-75
2023/10/11 03:17:23;;;;;;;;;;;18.80;92.30;;;;;;5055218;28;19943;-75
2023/10/11 03:19:49;;;;;;;;;;;18.80;92.30;;;;;;5055269;28;20242;-75
2023/10/11 03:22:21;;;;;;;;;;;18.80;92.20;;;;;;5054868;28;19920;-75
2023/10/11 03:25:12;;;;;;;;;;;18.80;92.20;;;;;;5054747;28;19905;-75
2023/10/11 03:27:46;;;;;;;;;;;18.80;92.20;;;;;;5054377;28;20314;-75
2023/10/11 03:30:13;;;;;;;;;;;18.70;92.20;;;;;;5054931;28;19999;-75
2023/10/11 03:32:43;;;;;;;;;;;18.70;92.20;;;;;;5053735;28;19909;-75
2023/10/11 03:35:10;;;;;;;;;;;18.60;92.30;;;;;;5054790;28;19908;-75
2023/10/11 03:37:37;;;;;;;;;;;18.60;92.30;;;;;;5053420;28;19963;-75
2023/10/11 03:40:13;;;;;;;;;;;18.60;92.30;;;;;;5054852;28;20375;-75
2023/10/11 03:42:59;;;;;;;;;;;18.60;92.30;;;;;;5053230;28;20372;-76
2023/10/11 03:45:27;;;;;;;;;;;18.60;92.30;;;;;;5053240;28;19908;-75
2023/10/11 03:47:58;;;;;;;;;;;18.60;92.30;;;;;;5054381;28;19954;-75
2023/10/11 03:50:33;;;;;;;;;;;18.50;92.30;;;;;;5054357;28;19958;-74
2023/10/11 03:53:07;;;;;;;;;;;18.50;92.30;;;;;;5051465;28;19992;-75
2023/10/11 03:55:33;;;;;;;;;;;18.50;92.30;;;;;;5051707;28;19905;-74
2023/10/11 03:57:58;;;;;;;;;;;18.50;92.30;;;;;;5054169;28;19934;-75
2023/10/11 04:03:05;;;;;;;;;;;18.40;92.30;;;;;;5054671;28;20008;-74
2023/10/11 04:05:40;;;;;;;;;;;18.50;92.30;;;;;;5054442;28;19904;-75
2023/10/11 04:08:06;;;;;;;;;;;18.40;92.40;;;;;;5054353;28;19944;-75
2023/10/11 04:10:39;;;;;;;;;;;18.40;92.40;;;;;;5054882;28;19908;-75
2023/10/11 04:13:09;;;;;;;;;;;18.40;92.50;;;;;;5054816;28;19912;-75
2023/10/11 04:15:39;;;;;;;;;;;18.30;92.50;;;;;;5054894;28;19912;-75
2023/10/11 04:18:20;;;;;;;;;;;18.30;92.40;;;;;;5054544;28;19904;-75
2023/10/11 04:21:13;;;;;;;;;;;18.30;92.40;;;;;;5053215;28;19908;-75
2023/10/11 04:23:40;;;;;;;;;;;18.30;92.50;;;;;;5054041;28;20300;-74
2023/10/11 04:26:23;;;;;;;;;;;18.20;92.40;;;;;;5052882;28;19909;-75
2023/10/11 04:28:51;;;;;;;;;;;18.20;92.50;;;;;;5054226;28;19905;-74
2023/10/11 04:31:36;;;;;;;;;;;18.20;92.50;;;;;;5051648;28;20326;-74
2023/10/11 04:34:48;;;;;;;;;;;18.20;92.60;;;;;;5052014;28;19962;-74
2023/10/11 04:36:56;;;;;;;;;;;18.20;92.70;;;;;;5050873;28;19905;-74
2023/10/11 04:39:28;;;;;;;;;;;18.20;92.60;;;;;;5052194;28;19995;-74
2023/10/11 04:42:29;;;;;;;;;;;18.10;92.60;;;;;;5085618;28;19959;-74
2023/10/11 04:44:56;;;;;;;;;;;18.10;92.70;;;;;;5053262;28;19951;-75
2023/10/11 04:47:23;;;;;;;;;;;18.10;92.70;;;;;;5053529;28;20346;-75
2023/10/11 04:49:52;;;;;;;;;;;18.10;92.70;;;;;;5053553;28;20351;-75
2023/10/11 04:52:23;;;;;;;;;;;18.10;92.60;;;;;;5052115;28;19934;-75
2023/10/11 04:54:55;;;;;;;;;;;18.00;92.60;;;;;;5086181;28;20260;-75
2023/10/11 04:57:40;;;;;;;;;;;18.00;92.60;;;;;;5053614;28;19943;-74
2023/10/11 05:00:08;;;;;;;;;;;18.00;92.60;;;;;;5085626;28;19922;-74
2023/10/11 05:02:36;;;;;;;;;;;18.00;92.50;;;;;;5044113;28;20349;-75
2023/10/11 05:05:05;;;;;;;;;;;18.00;92.50;;;;;;5031700;28;19908;-74
2023/10/11 05:07:32;;;;;;;;;;;17.90;92.50;;;;;;5033235;28;20404;-74
2023/10/11 05:10:29;;;;;;;;;;;17.90;92.50;;;;;;5033273;28;19912;-75
2023/10/11 05:12:47;;;;;;;;;;;17.90;92.50;;;;;;5032836;28;20309;-74
2023/10/11 05:15:15;;;;;;;;;;;17.80;92.40;;;;;;5031832;28;19909;-74
2023/10/11 05:17:41;;;;;;;;;;;17.80;92.40;;;;;;5031477;28;19905;-74
2023/10/11 05:27:56;;;;;;;;;;;17.70;92.60;;;;;;5039140;28;19982;-78
2023/10/11 05:52:17;;;;;;;;;;;17.60;92.90;;;;;;5037121;28;19939;-75
2023/10/11 05:54:43;;;;;;;;;;;17.60;93.10;;;;;;5036655;28;20000;-75
2023/10/11 05:57:09;;;;;;;;;;;17.70;93.10;;;;;;5037240;28;20352;-75
2023/10/11 05:59:35;;;;;;;;;;;17.70;93.00;;;;;;5036871;28;19905;-75
2023/10/11 06:02:22;;;;;;;;;;;17.70;93.10;;;;;;5036714;28;20015;-75
2023/10/11 06:04:48;;;;;;;;;;;17.80;93.10;;;;;;5036324;28;19932;-76
2023/10/11 06:07:15;;;;;;;;;;;17.80;93.20;;;;;;5035961;28;20284;-76
2023/10/11 06:10:41;;;;;;;;;;;17.90;93.20;;;;;;5035354;28;19953;-76
2023/10/11 06:13:43;;;;;;;;;;;17.90;93.30;;;;;;4975034;28;20870;-74
2023/10/11 06:16:13;;;;;;;;;;;18.00;93.20;;;;;;4943383;28;19913;-75
2023/10/11 06:18:39;;;;;;;;;;;18.00;93.10;;;;;;5029576;28;19912;-76
2023/10/11 06:21:08;;;;;;;;;;;18.00;93.10;;;;;;5036526;28;19905;-76
2023/10/11 06:23:38;;;;;;;;;;;18.10;93.10;;;;;;5052448;28;20288;-78
2023/10/11 06:26:28;;;;;;;;;;;18.10;93.10;;;;;;5051871;28;20549;-76
2023/10/11 06:29:02;;;;;;;;;;;18.10;93.10;;;;;;5053333;28;19956;-77
2023/10/11 06:31:33;;;;;;;;;;;18.10;93.10;;;;;;5053814;28;20289;-77
2023/10/11 06:34:15;;;;;;;;;;;18.20;93.10;;;;;;5054579;28;19904;-77
2023/10/11 06:36:41;;;;;;;;;;;18.20;93.10;;;;;;5055805;28;19973;-77
2023/10/11 06:39:33;;;;;;;;;;;18.20;93.20;;;;;;5054630;28;20276;-77
2023/10/11 06:41:52;;;;;;;;;;;18.20;93.30;;;;;;5055172;28;19908;-76
2023/10/11 06:44:18;;;;;;;;;;;18.20;93.30;;;;;;5054765;28;19905;-76
2023/10/11 06:46:47;;;;;;;;;;;18.30;93.30;;;;;;5053989;28;19905;-76
2023/10/11 06:49:14;;;;;;;;;;;18.30;93.30;;;;;;5049404;28;19953;-76
2023/10/11 06:51:41;;;;;;;;;;;18.30;93.40;;;;;;5035721;28;20380;-76
2023/10/11 06:54:08;;;;;;;;;;;18.40;93.50;;;;;;5035582;28;19948;-76
2023/10/11 06:56:35;;;;;;;;;;;18.50;93.50;;;;;;5035595;28;19934;-77
2023/10/11 06:59:00;;;;;;;;;;;18.60;93.50;;;;;;5033978;28;19947;-76
2023/10/11 07:01:30;;;;;;;;;;;18.60;93.50;;;;;;5035347;28;19952;-76
2023/10/11 07:03:57;;;;;;;;;;;18.70;93.50;;;;;;5035461;28;20387;-76
2023/10/11 07:06:22;;;;;;;;;;;18.70;93.50;;;;;;5035216;28;20329;-77
2023/10/11 07:08:53;;;;;;;;;;;18.80;93.50;;;;;;5041256;28;19907;-76
2023/10/11 07:11:50;;;;;;;;;;;18.90;93.50;;;;;;5044527;28;19909;-76
2023/10/11 07:14:16;;;;;;;;;;;18.90;93.40;;;;;;5035238;28;19916;-75
2023/10/11 07:16:42;;;;;;;;;;;19.10;93.30;;;;;;5034013;28;19905;-77
2023/10/11 07:19:09;;;;;;;;;;;19.10;93.30;;;;;;5042976;28;19963;-77
2023/10/11 07:24:19;;;;;;;;;;;19.20;93.00;;;;;;5042550;28;20357;-77
2023/10/11 07:29:16;;;;;;;;;;;19.30;93.00;;;;;;5035652;28;19905;-77
2023/10/11 07:31:51;;;;;;;;;;;19.30;93.00;;;;;;5034455;28;20262;-78
2023/10/11 07:34:18;;;;;;;;;;;19.30;93.00;;;;;;5034615;28;19905;-77
2023/10/11 07:36:47;;;;;;;;;;;19.40;92.90;;;;;;5035063;28;20515;-78
2023/10/11 07:48:32;;;;;;;;;;;19.60;92.80;;;;;;4971676;28;20005;-77
2023/10/11 07:51:28;;;;;;;;;;;19.70;92.70;;;;;;4973677;28;19974;-76
2023/10/11 07:53:50;;;;;;;;;;;19.80;92.70;;;;;;4972080;28;19906;-76
2023/10/11 07:59:51;;;;;;;;;;;19.80;92.70;;;;;;4984278;28;19913;-77
2023/10/11 08:02:41;;;;;;;;;;;19.90;92.60;;;;;;5014053;28;19914;-77
2023/10/11 08:05:20;;;;;;;;;;;20.00;92.50;;;;;;5013085;28;19913;-77
2023/10/11 08:07:46;;;;;;;;;;;20.00;92.10;;;;;;5014793;28;20309;-76
2023/10/11 08:10:33;;;;;;;;;;;20.10;91.80;;;;;;5033495;28;19930;-77
2023/10/11 08:13:02;;;;;;;;;;;20.10;91.50;;;;;;5014820;28;19909;-77
2023/10/11 08:15:28;;;;;;;;;;;20.20;91.30;;;;;;5014731;28;20353;-77
2023/10/11 08:17:54;;;;;;;;;;;20.30;91.00;;;;;;5014500;28;20313;-75
2023/10/11 08:20:24;;;;;;;;;;;20.30;90.80;;;;;;5014419;28;19905;-77
2023/10/11 08:22:55;;;;;;;;;;;20.30;90.70;;;;;;5014074;28;19920;-77
2023/10/11 08:25:27;;;;;;;;;;;20.40;90.70;;;;;;5013711;28;19912;-77
2023/10/11 08:28:10;;;;;;;;;;;20.50;90.70;;;;;;5014196;28;19905;-77
2023/10/11 08:30:37;;;;;;;;;;;20.50;90.70;;;;;;5013953;28;20277;-77
2023/10/11 08:33:04;;;;;;;;;;;20.60;90.70;;;;;;5013721;28;19937;-78
2023/10/11 08:35:32;;;;;;;;;;;20.60;90.50;;;;;;5024354;28;19959;-79
2023/10/11 08:38:04;;;;;;;;;;;20.70;90.50;;;;;;5033507;28;19909;-79
2023/10/11 08:40:35;;;;;;;;;;;20.70;90.30;;;;;;5033032;28;19948;-79
2023/10/11 08:43:02;;;;;;;;;;;20.70;90.20;;;;;;5033727;28;20380;-79
2023/10/11 08:45:42;;;;;;;;;;;20.80;90.40;;;;;;5034025;28;20040;-82
2023/10/11 08:48:08;;;;;;;;;;;20.90;90.50;;;;;;5035245;28;19905;-82
2023/10/11 08:50:34;;;;;;;;;;;21.00;90.60;;;;;;5052215;28;20272;-82
2023/10/11 08:53:09;;;;;;;;;;;21.00;90.60;;;;;;5053457;28;19911;-82
2023/10/11 08:55:42;;;;;;;;;;;21.10;90.60;;;;;;5053406;28;19963;-83
2023/10/11 08:58:12;;;;;;;;;;;21.10;90.50;;;;;;5051040;28;20324;-82
2023/10/11 09:00:38;;;;;;;;;;;21.20;90.60;;;;;;5053322;28;19912;-82
2023/10/11 09:03:17;;;;;;;;;;;21.30;90.30;;;;;;5053121;28;19912;-83
2023/10/11 09:05:43;;;;;;;;;;;21.30;89.80;;;;;;5053849;28;20306;-78
2023/10/11 09:08:22;;;;;;;;;;;21.40;90.00;;;;;;5053555;28;19944;-79
2023/10/11 09:10:51;;;;;;;;;;;21.50;90.10;;;;;;5053436;28;19905;-78
2023/10/11 09:13:26;;;;;;;;;;;21.60;89.80;;;;;;5053713;28;20307;-77
2023/10/11 09:15:54;;;;;;;;;;;21.60;89.30;;;;;;5054074;28;20306;-78
2023/10/11 09:18:20;;;;;;;;;;;21.70;88.70;;;;;;5053306;28;19905;-77
2023/10/11 09:21:36;;;;;;;;;;;21.70;88.40;;;;;;5053299;28;19912;-77
2023/10/11 09:23:46;;;;;;;;;;;21.70;88.80;;;;;;5047476;28;19955;-77
2023/10/11 09:26:21;;;;;;;;;;;21.80;88.90;;;;;;5053471;28;20281;-78
2023/10/11 09:29:02;;;;;;;;;;;21.80;88.90;;;;;;5052984;28;19959;-77
2023/10/11 09:31:30;;;;;;;;;;;21.90;88.90;;;;;;5051417;28;20006;-78
2023/10/11 09:34:07;;;;;;;;;;;22.00;89.00;;;;;;5052449;28;19905;-78
2023/10/11 09:36:37;;;;;;;;;;;22.00;89.10;;;;;;5052514;28;19917;-78
2023/10/11 09:39:03;;;;;;;;;;;22.10;88.80;;;;;;5053335;28;19912;-78
2023/10/11 09:41:52;;;;;;;;;;;22.10;88.60;;;;;;5053193;28;19905;-78
2023/10/11 09:44:21;;;;;;;;;;;22.20;88.60;;;;;;5053024;28;20007;-78
2023/10/11 09:46:48;;;;;;;;;;;22.20;88.10;;;;;;5052725;28;19905;-78
2023/10/11 09:49:15;;;;;;;;;;;22.30;87.70;;;;;;5052928;28;20380;-78
2023/10/11 09:51:41;;;;;;;;;;;22.40;87.50;;;;;;5053004;28;19905;-78
2023/10/11 09:54:12;;;;;;;;;;;22.40;87.60;;;;;;5052722;28;20280;-79
2023/10/11 09:56:38;;;;;;;;;;;22.50;87.10;;;;;;5052770;28;19905;-79
2023/10/11 09:59:28;;;;;;;;;;;22.50;86.80;;;;;;5052497;28;19912;-79
2023/10/11 10:01:55;;;;;;;;;;;22.60;86.10;;;;;;5052597;28;19916;-77
2023/10/11 10:04:40;;;;;;;;;;;22.60;85.80;;;;;;5053032;28;19909;-77
2023/10/11 10:07:14;;;;;;;;;;;22.70;85.50;;;;;;5052662;28;20305;-77
2023/10/11 10:09:48;;;;;;;;;;;22.70;85.00;;;;;;5053482;28;20447;-78
2023/10/11 10:12:20;;;;;;;;;;;22.70;85.00;;;;;;5056260;28;19909;-78
2023/10/11 10:14:50;;;;;;;;;;;22.70;85.40;;;;;;5056106;28;20378;-77
2023/10/11 10:17:16;;;;;;;;;;;22.70;85.70;;;;;;5056280;28;20438;-77
2023/10/11 10:19:46;;;;;;;;;;;22.70;86.10;;;;;;5056269;28;19904;-77
2023/10/11 10:22:16;;;;;;;;;;;22.80;86.00;;;;;;5055776;28;19971;-79
2023/10/11 10:24:45;;;;;;;;;;;22.80;85.70;;;;;;5054653;28;20310;-78
2023/10/11 10:27:23;;;;;;;;;;;22.90;85.60;;;;;;5055748;28;20316;-78
2023/10/11 10:29:55;;;;;;;;;;;22.90;85.60;;;;;;5054817;28;19908;-79
2023/10/11 10:32:21;;;;;;;;;;;23.00;86.70;;;;;;5055948;28;20383;-80
2023/10/11 10:34:46;;;;;;;;;;;23.10;86.90;;;;;;5055990;28;19905;-78
2023/10/11 10:37:34;;;;;;;;;;;23.10;86.70;;;;;;5054480;28;19966;-77
2023/10/11 10:40:24;;;;;;;;;;;23.20;86.50;;;;;;5055748;28;19912;-77
2023/10/11 10:43:08;;;;;;;;;;;23.20;86.60;;;;;;5055935;28;19913;-77
2023/10/11 10:45:35;;;;;;;;;;;23.20;86.70;;;;;;5055893;28;19908;-78
2023/10/11 10:48:16;;;;;;;;;;;23.30;85.70;;;;;;5056291;28;19911;-78
2023/10/11 10:50:52;;;;;;;;;;;23.30;85.80;;;;;;5056427;28;19920;-80
2023/10/11 10:53:19;;;;;;;;;;;23.30;85.60;;;;;;5056172;28;19971;-78
2023/10/11 10:58:39;;;;;;;;;;;23.40;85.20;;;;;;5013338;28;19906;-76
2023/10/11 11:01:24;;;;;;;;;;;23.40;84.90;;;;;;5051955;28;20381;-76
2023/10/11 11:03:56;;;;;;;;;;;23.50;85.70;;;;;;5056085;28;19999;-75
2023/10/11 11:06:23;;;;;;;;;;;23.50;85.60;;;;;;5056138;28;19905;-76
2023/10/11 11:08:53;;;;;;;;;;;23.60;85.80;;;;;;5054712;28;20055;-76
2023/10/11 11:11:34;;;;;;;;;;;23.60;85.60;;;;;;5055559;28;19911;-76
2023/10/11 11:14:07;;;;;;;;;;;23.70;84.80;;;;;;5055479;28;19908;-76
2023/10/11 11:16:33;;;;;;;;;;;23.70;85.00;;;;;;5057005;28;20268;-76
2023/10/11 11:19:10;;;;;;;;;;;23.70;85.20;;;;;;5055261;28;19905;-75
2023/10/11 11:21:44;;;;;;;;;;;23.80;85.90;;;;;;5050295;28;20307;-78
2023/10/11 11:24:19;;;;;;;;;;;23.80;85.70;;;;;;5053793;28;19908;-77
2023/10/11 11:26:45;;;;;;;;;;;23.90;85.80;;;;;;5055116;28;19919;-77
2023/10/11 11:29:17;;;;;;;;;;;23.90;84.90;;;;;;5054964;28;19905;-76
2023/10/11 11:31:53;;;;;;;;;;;24.00;85.50;;;;;;5054987;28;20273;-76
2023/10/11 11:34:27;;;;;;;;;;;24.00;83.60;;;;;;5054716;28;19912;-76
2023/10/11 11:36:57;;;;;;;;;;;24.00;84.20;;;;;;5053581;28;20335;-77
2023/10/11 11:39:27;;;;;;;;;;;24.00;84.60;;;;;;5054807;28;19905;-77
2023/10/11 11:41:57;;;;;;;;;;;24.10;85.00;;;;;;5054541;28;19927;-77
2023/10/11 11:44:23;;;;;;;;;;;24.10;85.50;;;;;;5054545;28;19912;-77
2023/10/11 11:46:52;;;;;;;;;;;24.10;84.60;;;;;;5054553;28;19909;-77
2023/10/11 11:49:20;;;;;;;;;;;24.20;84.50;;;;;;5054442;28;19946;-77
2023/10/11 11:51:58;;;;;;;;;;;24.20;83.00;;;;;;5054546;28;20300;-76
2023/10/11 11:54:28;;;;;;;;;;;24.20;83.80;;;;;;5054504;28;19905;-76
2023/10/11 11:56:54;;;;;;;;;;;24.30;84.70;;;;;;5054669;28;20417;-76
2023/10/11 11:59:21;;;;;;;;;;;24.30;84.60;;;;;;5054296;28;19950;-75
2023/10/11 12:01:52;;;;;;;;;;;24.40;84.50;;;;;;5054370;28;20425;-78
2023/10/11 12:04:24;;;;;;;;;;;24.30;84.00;;;;;;5054511;28;19905;-84
2023/10/11 12:06:49;;;;;;;;;;;24.40;83.80;;;;;;5054502;28;20332;-84
2023/10/11 12:09:21;;;;;;;;;;;24.40;83.10;;;;;;5053888;28;20001;-85
2023/10/11 12:11:49;;;;;;;;;;;24.40;81.40;;;;;;5054020;28;20054;-85
2023/10/11 12:14:15;;;;;;;;;;;24.40;81.20;;;;;;5054036;28;20361;-85
2023/10/11 12:16:43;;;;;;;;;;;24.50;81.90;;;;;;5054092;28;19912;-86
2023/10/11 12:19:11;;;;;;;;;;;24.50;81.70;;;;;;5054151;28;19927;-87
2023/10/11 12:21:37;;;;;;;;;;;24.50;81.40;;;;;;5053865;28;20445;-86
2023/10/11 12:24:10;;;;;;;;;;;24.50;80.70;;;;;;5054673;28;19904;-77
2023/10/11 12:26:36;;;;;;;;;;;24.60;78.70;;;;;;5054351;28;19912;-77
2023/10/11 12:29:06;;;;;;;;;;;24.70;79.00;;;;;;5054590;28;19909;-76
2023/10/11 12:31:32;;;;;;;;;;;24.70;79.60;;;;;;5054355;28;19952;-78
2023/10/11 12:37:05;;;;;;;;;;;24.70;79.00;;;;;;5031404;28;19911;-76
2023/10/11 12:39:33;;;;;;;;;;;24.70;78.00;;;;;;5054026;28;19940;-78
2023/10/11 12:42:02;;;;;;;;;;;24.70;78.30;;;;;;5054008;28;19913;-76
2023/10/11 12:44:30;;;;;;;;;;;24.80;78.00;;;;;;5053769;28;20376;-78
2023/10/11 12:47:16;;;;;;;;;;;24.90;78.70;;;;;;5053376;28;19923;-76
2023/10/11 12:49:54;;;;;;;;;;;24.90;78.40;;;;;;5052603;28;19951;-81
2023/10/11 12:55:25;;;;;;;;;;;24.90;78.20;;;;;;4973149;28;19945;-75
2023/10/11 12:57:52;;;;;;;;;;;25.00;76.50;;;;;;5051232;28;19909;-75
2023/10/11 13:00:31;;;;;;;;;;;25.00;77.00;;;;;;5053634;28;19909;-75
2023/10/11 13:02:59;;;;;;;;;;;25.00;76.90;;;;;;5053487;28;20315;-75
2023/10/11 13:05:26;;;;;;;;;;;25.00;76.90;;;;;;5052339;28;19904;-75
2023/10/11 13:07:54;;;;;;;;;;;25.10;77.20;;;;;;5051580;28;19905;-75
2023/10/11 13:10:22;;;;;;;;;;;25.00;77.70;;;;;;5051646;28;20269;-76
2023/10/11 13:12:50;;;;;;;;;;;25.10;77.60;;;;;;5051490;28;20427;-76
2023/10/11 13:15:18;;;;;;;;;;;25.10;77.10;;;;;;5052065;28;19916;-75
2023/10/11 13:17:44;;;;;;;;;;;25.10;77.70;;;;;;5052145;28;19951;-75
2023/10/11 13:20:18;;;;;;;;;;;25.10;77.50;;;;;;5052184;28;19905;-77
2023/10/11 13:22:47;;;;;;;;;;;25.10;76.20;;;;;;5053190;28;19919;-76
2023/10/11 13:25:23;;;;;;;;;;;25.10;75.50;;;;;;5053445;28;19944;-76
2023/10/11 13:27:54;;;;;;;;;;;25.10;74.00;;;;;;5053194;28;19995;-76
2023/10/11 13:30:23;;;;;;;;;;;25.20;72.80;;;;;;5053255;28;20364;-75
2023/10/11 13:32:50;;;;;;;;;;;25.20;74.20;;;;;;5053383;28;19911;-75
2023/10/11 13:35:15;;;;;;;;;;;25.20;74.40;;;;;;5053308;28;19908;-75
2023/10/11 13:37:46;;;;;;;;;;;25.20;74.30;;;;;;5053323;28;19911;-76
2023/10/11 13:40:16;;;;;;;;;;;25.20;74.20;;;;;;5052919;28;20422;-77
2023/10/11 13:42:43;;;;;;;;;;;25.20;74.60;;;;;;5053190;28;20364;-78
2023/10/11 13:45:14;;;;;;;;;;;25.20;75.20;;;;;;5054732;28;20288;-76
2023/10/11 13:47:44;;;;;;;;;;;25.20;76.20;;;;;;5057056;28;19905;-76
2023/10/11 13:50:20;;;;;;;;;;;25.20;76.50;;;;;;5057027;28;19931;-76
2023/10/11 13:52:51;;;;;;;;;;;25.20;75.60;;;;;;5057205;28;19952;-75
2023/10/11 13:55:18;;;;;;;;;;;25.20;76.50;;;;;;5057058;28;19999;-75
2023/10/11 13:57:52;;;;;;;;;;;25.20;76.90;;;;;;5056954;28;20410;-76
2023/10/11 14:05:41;;;;;;;;;;;25.30;79.40;;;;;;5057551;28;19912;-76
2023/10/11 14:08:25;;;;;;;;;;;25.20;80.10;;;;;;5057274;28;19905;-74
2023/10/11 14:10:51;;;;;;;;;;;25.20;79.80;;;;;;5057188;28;19974;-75
2023/10/11 14:13:24;;;;;;;;;;;25.20;79.40;;;;;;5057260;28;19976;-75
2023/10/11 14:15:57;;;;;;;;;;;25.30;80.30;;;;;;5056988;28;20314;-75
2023/10/11 14:18:27;;;;;;;;;;;25.20;80.10;;;;;;5056690;28;19912;-75
2023/10/11 14:20:56;;;;;;;;;;;25.20;80.50;;;;;;5056613;28;19991;-75
2023/10/11 14:23:22;;;;;;;;;;;25.20;80.70;;;;;;5056144;28;19913;-75
2023/10/11 14:25:55;;;;;;;;;;;25.20;79.90;;;;;;5056725;28;19905;-76
2023/10/11 14:28:21;;;;;;;;;;;25.20;80.50;;;;;;5056537;28;20253;-75
2023/10/11 14:30:50;;;;;;;;;;;25.20;80.10;;;;;;5056470;28;19912;-75
2023/10/11 14:33:19;;;;;;;;;;;25.20;80.30;;;;;;5056508;28;19909;-75
2023/10/11 14:35:47;;;;;;;;;;;25.20;80.70;;;;;;5056167;28;20287;-76
2023/10/11 14:38:17;;;;;;;;;;;25.10;81.30;;;;;;5056590;28;19905;-76
2023/10/11 14:40:43;;;;;;;;;;;25.10;81.70;;;;;;5056352;28;19919;-75
2023/10/11 14:43:11;;;;;;;;;;;25.10;81.00;;;;;;5056218;28;19939;-75
2023/10/11 14:45:40;;;;;;;;;;;25.10;81.70;;;;;;5054892;28;20003;-75
2023/10/11 14:48:08;;;;;;;;;;;25.10;81.80;;;;;;5055561;28;20320;-75
2023/10/11 14:50:34;;;;;;;;;;;25.10;81.20;;;;;;5055741;28;19966;-75
2023/10/11 14:53:02;;;;;;;;;;;25.10;81.10;;;;;;5055870;28;19940;-75
2023/10/11 14:55:34;;;;;;;;;;;25.10;81.50;;;;;;5055393;28;20268;-75
2023/10/11 14:58:00;;;;;;;;;;;25.00;82.30;;;;;;5054963;28;19905;-75
2023/10/11 15:00:33;;;;;;;;;;;25.10;82.60;;;;;;5055755;28;20380;-75
2023/10/11 15:02:59;;;;;;;;;;;25.00;82.10;;;;;;5055729;28;20352;-75
2023/10/11 15:05:29;;;;;;;;;;;25.00;82.60;;;;;;5054558;28;19905;-76
2023/10/11 15:07:54;;;;;;;;;;;25.00;82.20;;;;;;5053526;28;19947;-75
2023/10/11 15:10:26;;;;;;;;;;;25.00;82.30;;;;;;5052723;28;19970;-75
2023/10/11 15:12:53;;;;;;;;;;;24.90;82.50;;;;;;5054145;28;19909;-75
2023/10/11 15:15:19;;;;;;;;;;;25.00;83.10;;;;;;5054112;28;19999;-75
2023/10/11 15:17:47;;;;;;;;;;;24.90;83.00;;;;;;5054234;28;20034;-75
2023/10/11 15:20:16;;;;;;;;;;;24.90;83.10;;;;;;5055240;28;19905;-77
2023/10/11 15:22:43;;;;;;;;;;;24.90;83.40;;;;;;5055363;28;19913;-83
2023/10/11 15:25:09;;;;;;;;;;;24.90;83.50;;;;;;5054148;28;20280;-83
2023/10/11 15:27:35;;;;;;;;;;;24.80;83.70;;;;;;5054090;28;19916;-83
2023/10/11 15:30:02;;;;;;;;;;;24.80;84.10;;;;;;5055268;28;19905;-82
2023/10/11 15:32:28;;;;;;;;;;;24.80;84.20;;;;;;5055432;28;20341;-82
2023/10/11 15:34:54;;;;;;;;;;;24.70;84.10;;;;;;5055305;28;19912;-82
2023/10/11 15:37:20;;;;;;;;;;;24.70;84.40;;;;;;5055199;28;19955;-83
2023/10/11 15:39:45;;;;;;;;;;;24.70;84.60;;;;;;5053434;28;19963;-83
2023/10/11 15:42:14;;;;;;;;;;;24.70;84.60;;;;;;5055059;28;19913;-75
2023/10/11 15:44:39;;;;;;;;;;;24.70;84.60;;;;;;5055624;28;19905;-74
2023/10/11 15:47:05;;;;;;;;;;;24.70;84.80;;;;;;5055220;28;19916;-75
2023/10/11 15:49:34;;;;;;;;;;;24.60;84.90;;;;;;5055107;28;19959;-74